Time;durP1;ratioP1;P1;durP2;ratioP2;P2;SDS_P1;SDS_P2;PMS_P1;PMS_P2;Temp;Humidity;BMP_temperature;BMP_pressure;BME280_temperature;BME280_humidity;BME280_pressure;Samples;Min_cycle;Max_cycle;Signal;HPM_P1;HPM_P2
2022/05/10 00:01:44;;;;;;;6.13;5.60;;;;;;;13.34;57.33;101999.38;5014795;28;21021;-49
2022/05/10 00:04:13;;;;;;;5.73;5.10;;;;;;;13.32;57.40;102005.94;5014956;28;20472;-50
2022/05/10 00:06:45;;;;;;;6.40;4.53;;;;;;;13.28;57.57;102000.09;5014453;28;20511;-47
2022/05/10 00:09:14;;;;;;;8.00;5.33;;;;;;;13.26;57.69;102002.94;5014816;28;20455;-47
2022/05/10 00:11:42;;;;;;;7.23;5.10;;;;;;;13.22;57.96;102006.19;5014281;28;20481;-48
2022/05/10 00:14:10;;;;;;;5.33;4.90;;;;;;;13.21;57.65;102004.50;5014571;28;20433;-46
2022/05/10 00:16:41;;;;;;;6.43;5.40;;;;;;;13.18;57.96;102008.41;5014014;28;21001;-48
2022/05/10 00:19:12;;;;;;;6.23;5.63;;;;;;;13.16;58.15;102005.06;5014653;28;20435;-46
2022/05/10 00:21:41;;;;;;;9.23;5.50;;;;;;;13.14;58.03;102014.31;5014350;28;20457;-46
2022/05/10 00:24:09;;;;;;;8.50;6.30;;;;;;;13.11;58.08;102014.69;5014472;28;20430;-47
2022/05/10 00:26:37;;;;;;;5.63;5.03;;;;;;;13.08;57.95;102013.16;5013726;28;20998;-46
2022/05/10 00:29:05;;;;;;;6.17;5.57;;;;;;;13.04;58.65;102014.53;5014537;28;20443;-48
2022/05/10 00:31:33;;;;;;;5.70;5.03;;;;;;;13.00;58.49;102013.22;5014111;28;20483;-49
2022/05/10 00:34:02;;;;;;;11.20;5.33;;;;;;;12.99;58.84;102016.91;5014406;28;20468;-51
2022/05/10 00:36:30;;;;;;;7.93;4.90;;;;;;;12.95;58.56;102004.91;5013818;28;20666;-45
2022/05/10 00:39:00;;;;;;;5.50;4.70;;;;;;;12.92;58.86;102005.28;5014097;28;20923;-48
2022/05/10 00:41:33;;;;;;;9.00;5.57;;;;;;;12.90;59.10;102001.13;5013393;28;20460;-46
2022/05/10 00:44:09;;;;;;;5.37;4.90;;;;;;;12.86;58.80;101995.28;5014064;28;20911;-46
2022/05/10 00:46:42;;;;;;;6.10;5.50;;;;;;;12.83;58.92;101992.13;5007671;28;20982;-44
2022/05/10 00:49:17;;;;;;;7.30;6.60;;;;;;;12.80;59.33;101987.13;5012790;28;20703;-46
2022/05/10 00:51:51;;;;;;;5.67;5.07;;;;;;;12.73;59.27;101987.88;5013514;28;20480;-47
2022/05/10 00:54:29;;;;;;;6.57;5.93;;;;;;;12.70;59.56;101977.50;5014114;28;20429;-49
2022/05/10 00:57:09;;;;;;;6.03;5.40;;;;;;;12.67;59.48;101980.56;5013460;28;20488;-47
2022/05/10 00:59:48;;;;;;;6.50;5.17;;;;;;;12.64;59.79;101980.91;5013738;28;20425;-46
2022/05/10 01:02:26;;;;;;;8.23;6.20;;;;;;;12.60;59.83;101973.44;5013290;28;20464;-50
2022/05/10 01:04:58;;;;;;;5.27;4.97;;;;;;;12.57;59.99;101969.25;5013699;28;20475;-50
2022/05/10 01:07:30;;;;;;;8.60;5.37;;;;;;;12.54;60.10;101972.31;5013271;28;20472;-48
2022/05/10 01:10:06;;;;;;;6.50;5.60;;;;;;;12.52;60.32;101968.13;5013578;28;21095;-47
2022/05/10 01:12:41;;;;;;;8.73;6.20;;;;;;;12.48;60.24;101962.34;5013581;28;20477;-48
2022/05/10 01:15:13;;;;;;;8.23;5.37;;;;;;;12.45;60.61;101951.16;5013874;28;20436;-45
2022/05/10 01:17:41;;;;;;;7.83;6.00;;;;;;;12.44;60.37;101944.97;5013056;28;20552;-45
2022/05/10 01:20:11;;;;;;;6.30;5.80;;;;;;;12.42;60.62;101947.00;5013384;28;20942;-42
2022/05/10 01:22:55;;;;;;;8.10;5.33;;;;;;;12.39;60.72;101935.81;5013539;28;20437;-44
2022/05/10 01:25:44;;;;;;;6.60;5.50;;;;;;;12.37;60.71;101940.50;5013402;28;20440;-49
2022/05/10 01:28:24;;;;;;;8.80;5.73;;;;;;;12.31;61.01;101934.03;5013075;28;20480;-45
2022/05/10 01:30:51;;;;;;;7.93;5.47;;;;;;;12.28;60.95;101931.69;5012999;28;20823;-44
2022/05/10 01:33:31;;;;;;;6.40;5.90;;;;;;;12.28;60.93;101931.69;5013021;28;20986;-47
2022/05/10 01:36:12;;;;;;;6.43;5.93;;;;;;;12.24;61.10;101919.72;5012822;28;20484;-46
2022/05/10 01:38:46;;;;;;;8.80;5.27;;;;;;;12.20;61.22;101921.91;5013160;28;20435;-51
2022/05/10 01:41:22;;;;;;;6.13;5.43;;;;;;;12.17;61.41;101921.44;5012817;28;20544;-45
2022/05/10 01:44:04;;;;;;;6.93;6.17;;;;;;;12.14;61.31;101919.13;5013002;28;20428;-47
2022/05/10 01:46:33;;;;;;;5.97;5.33;;;;;;;12.10;61.73;101910.59;5007155;28;20983;-44
2022/05/10 01:49:16;;;;;;;6.47;5.97;;;;;;;12.06;61.73;101906.66;5010504;28;20832;-47
2022/05/10 01:51:50;;;;;;;9.33;5.90;;;;;;;12.03;62.18;101900.81;5012515;28;20456;-46
2022/05/10 01:54:50;;;;;;;6.70;6.13;;;;;;;12.00;62.42;101898.50;5012015;28;20439;-45
2022/05/10 01:57:19;;;;;;;10.07;5.67;;;;;;;11.97;62.21;101893.50;5000553;28;20485;-46
2022/05/10 01:59:52;;;;;;;8.60;6.40;;;;;;;11.95;62.65;101888.31;5012780;28;20459;-47
2022/05/10 02:02:24;;;;;;;11.70;6.90;;;;;;;11.94;62.66;101880.50;5012256;28;20464;-46
2022/05/10 02:04:56;;;;;;;10.83;6.13;;;;;;;11.91;62.72;101878.19;5012863;28;20451;-45
2022/05/10 02:07:26;;;;;;;5.80;5.33;;;;;;;11.91;62.90;101875.50;5012201;28;20464;-45
2022/05/10 02:09:59;;;;;;;10.00;6.40;;;;;;;11.88;63.13;101876.69;5012622;28;20433;-49
2022/05/10 02:12:32;;;;;;;7.20;6.50;;;;;;;11.86;62.97;101872.50;5012087;28;20477;-47
2022/05/10 02:15:08;;;;;;;13.90;6.03;;;;;;;11.87;63.12;101879.53;5012411;28;20439;-47
2022/05/10 02:17:41;;;;;;;11.13;6.80;;;;;;;11.85;63.23;101860.19;5012123;28;20452;-46
2022/05/10 02:20:16;;;;;;;8.60;6.60;;;;;;;11.85;63.24;101860.19;5012463;28;20492;-43
2022/05/10 02:22:50;;;;;;;6.40;5.80;;;;;;;11.85;63.74;101857.50;5012466;28;20433;-50
2022/05/10 02:25:24;;;;;;;7.00;5.70;;;;;;;11.85;63.63;101850.31;5012279;28;20433;-48
2022/05/10 02:27:54;;;;;;;6.50;5.80;;;;;;;11.86;63.84;101843.94;5011869;28;20839;-46
2022/05/10 02:30:27;;;;;;;6.37;5.77;;;;;;;11.86;63.87;101841.28;5012216;28;20425;-46
2022/05/10 02:33:09;;;;;;;6.90;6.40;;;;;;;11.88;64.34;101835.75;5012285;28;20487;-46
2022/05/10 02:35:43;;;;;;;7.93;5.90;;;;;;;11.88;63.88;101831.25;5012438;28;20505;-46
2022/05/10 02:38:14;;;;;;;5.83;5.40;;;;;;;11.87;63.92;101828.75;5011690;28;20452;-45
2022/05/10 02:40:44;;;;;;;7.00;6.30;;;;;;;11.88;63.98;101817.06;5012035;28;20448;-49
2022/05/10 02:43:17;;;;;;;7.27;6.57;;;;;;;11.90;64.12;101818.53;5012533;28;20811;-46
2022/05/10 02:45:46;;;;;;;6.80;6.20;;;;;;;11.91;64.24;101806.00;5011659;28;20425;-45
2022/05/10 02:48:20;;;;;;;6.20;5.70;;;;;;;11.93;64.43;101809.31;5003575;28;21155;-47
2022/05/10 02:50:48;;;;;;;6.80;6.20;;;;;;;11.94;64.20;101801.13;5012087;28;20449;-45
2022/05/10 02:53:16;;;;;;;8.90;6.60;;;;;;;11.95;64.25;101796.59;5012202;28;20477;-47
2022/05/10 02:55:50;;;;;;;6.83;6.03;;;;;;;11.98;63.94;101793.56;5012041;28;20432;-48
2022/05/10 02:58:27;;;;;;;7.70;6.90;;;;;;;11.98;63.83;101785.53;5011873;28;20441;-49
2022/05/10 03:01:02;;;;;;;6.10;5.60;;;;;;;11.99;64.26;101787.22;5011624;28;20457;-47
2022/05/10 03:03:31;;;;;;;11.03;6.77;;;;;;;11.99;64.33;101780.03;5011898;28;20918;-45
2022/05/10 03:05:58;;;;;;;10.97;7.13;;;;;;;12.00;63.97;101779.03;5014089;28;20432;-48
2022/05/10 03:08:26;;;;;;;11.33;6.40;;;;;;;12.01;64.53;101777.16;5015927;28;20439;-51
2022/05/10 03:10:53;;;;;;;8.77;6.77;;;;;;;12.02;64.14;101765.47;5015553;28;20459;-45
2022/05/10 03:13:21;;;;;;;8.03;7.20;;;;;;;12.03;64.70;101761.78;5015608;28;20488;-51
2022/05/10 03:15:49;;;;;;;9.43;7.10;;;;;;;12.07;64.34;101763.91;5015447;28;20433;-47
2022/05/10 03:18:18;;;;;;;7.47;6.10;;;;;;;12.09;64.44;101761.91;5015678;28;20433;-47
2022/05/10 03:20:46;;;;;;;7.67;5.80;;;;;;;12.12;64.05;101763.38;5015494;28;20464;-49
2022/05/10 03:23:14;;;;;;;7.13;6.33;;;;;;;12.13;64.47;101755.16;5015859;28;20432;-47
2022/05/10 03:25:41;;;;;;;6.93;6.43;;;;;;;12.17;64.08;101753.78;5015442;28;20435;-46
2022/05/10 03:28:09;;;;;;;9.27;6.37;;;;;;;12.20;64.12;101756.09;5015073;28;20822;-46
2022/05/10 03:30:37;;;;;;;7.00;6.40;;;;;;;12.26;63.84;101751.03;5015395;28;20757;-48
2022/05/10 03:33:05;;;;;;;8.20;7.00;;;;;;;12.30;63.92;101758.53;5015442;28;20476;-50
2022/05/10 03:35:34;;;;;;;6.47;5.77;;;;;;;12.35;63.98;101752.59;5015465;28;20427;-50
2022/05/10 03:38:02;;;;;;;7.53;6.83;;;;;;;12.40;63.62;101750.22;5014893;28;21005;-45
2022/05/10 03:40:29;;;;;;;12.37;7.20;;;;;;;12.46;63.52;101752.16;5014854;28;20943;-49
2022/05/10 03:42:57;;;;;;;7.20;5.83;;;;;;;12.49;63.64;101760.63;5015407;28;20436;-48
2022/05/10 03:45:25;;;;;;;6.10;5.50;;;;;;;12.57;63.69;101747.16;5005732;28;20452;-45
2022/05/10 03:47:55;;;;;;;10.57;6.07;;;;;;;12.64;63.50;101753.44;5011022;28;20472;-48
2022/05/10 03:50:25;;;;;;;8.70;6.43;;;;;;;12.67;63.06;101736.19;4995217;28;20490;-46
2022/05/10 03:52:54;;;;;;;10.30;6.87;;;;;;;12.73;63.25;101736.28;4995276;28;20904;-45
2022/05/10 03:55:24;;;;;;;7.33;6.47;;;;;;;12.79;62.81;101737.38;4995667;28;20440;-48
2022/05/10 03:57:52;;;;;;;8.37;6.10;;;;;;;12.85;62.68;101728.59;4994907;28;20474;-48
2022/05/10 04:00:23;;;;;;;7.23;6.20;;;;;;;12.91;62.75;101729.69;4994249;28;20444;-48
2022/05/10 04:02:51;;;;;;;9.50;6.70;;;;;;;12.96;62.38;101719.25;4995350;28;20517;-45
2022/05/10 04:05:20;;;;;;;11.07;7.40;;;;;;;13.00;62.32;101721.34;4995071;28;20491;-47
2022/05/10 04:07:48;;;;;;;12.50;6.90;;;;;;;13.06;62.30;101717.09;4994615;28;20466;-47
2022/05/10 04:10:17;;;;;;;7.17;6.47;;;;;;;13.11;62.22;101712.84;4995047;28;20434;-47
2022/05/10 04:12:45;;;;;;;8.10;6.60;;;;;;;13.17;62.21;101720.13;4995228;28;20438;-49
2022/05/10 04:15:17;;;;;;;7.70;7.00;;;;;;;13.23;61.92;101713.22;4995051;28;20474;-50
2022/05/10 04:17:44;;;;;;;9.10;6.10;;;;;;;13.27;61.58;101709.94;4993561;28;20468;-48
2022/05/10 04:20:14;;;;;;;9.80;6.33;;;;;;;13.36;61.75;101712.50;4995061;28;20496;-47
2022/05/10 04:22:42;;;;;;;6.57;5.97;;;;;;;13.41;61.66;101705.53;4995019;28;20441;-48
2022/05/10 04:25:16;;;;;;;9.23;6.30;;;;;;;13.49;61.52;101705.44;4995092;28;20442;-47
2022/05/10 04:27:45;;;;;;;8.60;6.00;;;;;;;13.57;61.58;101709.81;4994447;28;20552;-47
2022/05/10 04:30:14;;;;;;;7.20;5.43;;;;;;;13.64;60.95;101703.50;4994574;28;20448;-48
2022/05/10 04:32:42;;;;;;;7.70;6.60;;;;;;;13.68;60.95;101704.75;4994943;28;20460;-47
2022/05/10 04:35:10;;;;;;;12.93;6.63;;;;;;;13.77;60.90;101710.81;4994747;28;20612;-50
2022/05/10 04:37:38;;;;;;;7.27;6.50;;;;;;;13.83;60.85;101696.63;4993994;28;21077;-47
2022/05/10 04:42:54;;;;;;;8.93;6.30;;;;;;;13.99;60.39;101708.91;4994517;28;20433;-48
2022/05/10 04:45:22;;;;;;;9.20;6.77;;;;;;;14.06;60.29;101704.44;4995400;28;20449;-49
2022/05/10 04:47:50;;;;;;;8.33;5.93;;;;;;;14.13;60.21;101694.56;5005421;28;20518;-47
2022/05/10 04:50:18;;;;;;;7.07;6.43;;;;;;;14.22;60.21;101696.91;5013712;28;20954;-46
2022/05/10 04:52:45;;;;;;;7.60;6.83;;;;;;;14.28;59.74;101701.47;5013911;28;20447;-47
2022/05/10 04:55:13;;;;;;;6.90;6.30;;;;;;;14.37;59.71;101699.50;5013831;28;20477;-46
2022/05/10 04:57:41;;;;;;;9.70;5.47;;;;;;;14.47;59.44;101701.81;5013374;28;20475;-47
2022/05/10 05:00:14;;;;;;;8.60;7.80;;;;;;;14.53;59.32;101707.22;5013639;28;20437;-44
2022/05/10 05:02:43;;;;;;;7.17;6.37;;;;;;;14.64;59.22;101708.50;5013908;28;20443;-46
2022/05/10 05:05:12;;;;;;;9.17;6.30;;;;;;;14.69;59.30;101714.97;5013746;28;20898;-45
2022/05/10 05:07:40;;;;;;;6.90;6.30;;;;;;;14.77;59.04;101717.47;5013052;28;20994;-49
2022/05/10 05:10:09;;;;;;;6.93;6.37;;;;;;;14.84;58.75;101720.97;5013775;28;20858;-50
2022/05/10 05:12:37;;;;;;;7.83;7.03;;;;;;;14.85;58.67;101713.75;5013253;28;20464;-47
2022/05/10 05:15:08;;;;;;;8.60;6.67;;;;;;;14.94;58.50;101709.88;5013614;28;20472;-48
2022/05/10 05:17:38;;;;;;;9.20;7.33;;;;;;;14.98;58.21;101708.44;5013036;28;20481;-49
2022/05/10 05:20:07;;;;;;;8.80;6.67;;;;;;;15.13;58.19;101710.97;5013347;28;20437;-47
2022/05/10 05:22:34;;;;;;;10.13;7.43;;;;;;;15.35;58.19;101709.78;5013595;28;20461;-48
2022/05/10 05:25:02;;;;;;;8.63;7.60;;;;;;;15.53;57.70;101709.22;5013545;28;20425;-50
2022/05/10 05:27:30;;;;;;;11.90;7.67;;;;;;;15.73;57.13;101699.28;5012796;28;21030;-48
2022/05/10 05:29:57;;;;;;;8.03;6.60;;;;;;;15.87;56.75;101706.31;5013283;28;20429;-45
2022/05/10 05:32:33;;;;;;;9.70;7.40;;;;;;;16.11;56.98;101704.84;5012921;28;20463;-51
2022/05/10 05:35:03;;;;;;;8.30;7.30;;;;;;;16.35;56.53;101706.84;5013038;28;20477;-48
2022/05/10 05:37:34;;;;;;;7.77;6.60;;;;;;;16.50;55.73;101700.19;5012604;28;21066;-47
2022/05/10 05:40:05;;;;;;;10.07;6.80;;;;;;;16.68;55.45;101699.53;5013219;28;20434;-48
2022/05/10 05:42:32;;;;;;;8.20;7.37;;;;;;;16.78;55.28;101691.84;5012917;28;20814;-50
2022/05/10 05:45:00;;;;;;;15.90;7.97;;;;;;;16.84;54.48;101707.16;5013118;28;20436;-49
2022/05/10 05:47:28;;;;;;;8.20;6.20;;;;;;;16.98;54.38;101697.94;5004152;28;20512;-50
2022/05/10 05:49:56;;;;;;;8.20;7.17;;;;;;;17.23;54.36;101697.19;5012915;28;20433;-47
2022/05/10 05:52:26;;;;;;;6.37;5.70;;;;;;;17.57;54.17;101697.59;5012819;28;20457;-49
2022/05/10 05:54:54;;;;;;;8.50;7.13;;;;;;;17.81;53.27;101693.25;5012911;28;20477;-46
2022/05/10 05:57:22;;;;;;;7.80;6.97;;;;;;;18.10;53.08;101689.00;5012300;28;20469;-45
2022/05/10 05:59:53;;;;;;;9.10;7.37;;;;;;;18.21;52.22;101680.19;5012677;28;20537;-48
2022/05/10 06:02:22;;;;;;;6.73;6.17;;;;;;;18.44;52.21;101691.16;5012392;28;20473;-47
2022/05/10 06:04:51;;;;;;;8.30;6.80;;;;;;;18.69;51.83;101681.13;5012782;28;20439;-46
2022/05/10 06:07:18;;;;;;;7.60;6.90;;;;;;;18.89;51.04;101677.31;5012141;28;20997;-46
2022/05/10 06:09:49;;;;;;;20.83;6.77;;;;;;;19.08;51.01;101681.63;5012559;28;20435;-45
2022/05/10 06:12:19;;;;;;;9.67;6.90;;;;;;;19.21;50.00;101678.72;5012465;28;20455;-47
2022/05/10 06:14:47;;;;;;;7.03;6.33;;;;;;;19.36;50.15;101671.00;5012924;28;20478;-47
2022/05/10 06:17:16;;;;;;;7.43;6.73;;;;;;;19.41;48.40;101667.66;5012019;28;21057;-48
2022/05/10 06:19:46;;;;;;;8.20;7.50;;;;;;;19.51;49.60;101676.00;5012333;28;20984;-45
2022/05/10 06:22:15;;;;;;;9.50;7.10;;;;;;;19.70;49.22;101666.75;5012292;28;20811;-48
2022/05/10 06:24:43;;;;;;;7.33;6.57;;;;;;;19.88;49.60;101666.63;5012209;28;21029;-47
2022/05/10 06:27:16;;;;;;;10.70;6.87;;;;;;;20.21;49.30;101669.56;5011884;28;20465;-46
2022/05/10 06:29:44;;;;;;;10.67;6.10;;;;;;;20.44;48.89;101663.28;5012222;28;20964;-48
2022/05/10 06:32:20;;;;;;;7.77;6.50;;;;;;;20.67;48.37;101657.00;5032998;22;20488;-44
2022/05/10 06:34:49;;;;;;;8.40;6.37;;;;;;;20.60;48.77;101646.28;5007831;28;20475;-45
2022/05/10 06:40:07;;;;;;;10.13;7.07;;;;;;;20.30;48.42;101651.91;5012097;28;20559;-44
2022/05/10 06:42:36;;;;;;;8.63;6.87;;;;;;;20.15;48.58;101662.38;5011808;28;21008;-47
2022/05/10 06:45:08;;;;;;;8.83;7.10;;;;;;;20.02;49.17;101648.25;5011992;28;20930;-44
2022/05/10 06:47:37;;;;;;;7.30;6.50;;;;;;;19.89;49.46;101641.22;4987518;28;20890;-45
2022/05/10 06:50:07;;;;;;;6.83;6.13;;;;;;;19.76;49.84;101649.56;4992231;28;20445;-44
2022/05/10 06:52:36;;;;;;;7.80;7.10;;;;;;;19.66;50.04;101646.63;4992314;28;20437;-45
2022/05/10 06:55:04;;;;;;;13.37;8.23;;;;;;;19.55;50.32;101648.25;4992392;28;20570;-48
2022/05/10 06:57:33;;;;;;;10.47;6.27;;;;;;;19.54;50.42;101637.66;4991961;28;20469;-46
2022/05/10 07:00:03;;;;;;;9.80;6.87;;;;;;;19.50;50.79;101640.03;4992287;28;20430;-47
2022/05/10 07:02:30;;;;;;;7.40;6.70;;;;;;;19.50;50.98;101633.78;4992091;28;20461;-46
2022/05/10 07:04:58;;;;;;;8.90;6.97;;;;;;;19.49;50.90;101635.66;4992465;28;20430;-44
2022/05/10 07:07:27;;;;;;;8.53;7.73;;;;;;;19.52;50.83;101632.50;4991850;28;20471;-47
2022/05/10 07:09:54;;;;;;;7.47;6.83;;;;;;;19.54;50.40;101634.94;4992298;28;20866;-46
2022/05/10 07:12:22;;;;;;;8.07;7.27;;;;;;;19.57;51.21;101639.91;4992035;28;20520;-47
2022/05/10 07:14:50;;;;;;;8.30;7.27;;;;;;;19.60;50.93;101634.03;4991992;28;20434;-48
2022/05/10 07:17:19;;;;;;;9.20;8.30;;;;;;;19.62;50.98;101648.94;4991873;28;20993;-44
2022/05/10 07:19:47;;;;;;;11.73;7.90;;;;;;;19.52;51.08;101647.91;4992239;28;20477;-48
2022/05/10 07:22:14;;;;;;;12.10;8.07;;;;;;;19.71;50.95;101641.34;4991934;28;20573;-47
2022/05/10 07:24:42;;;;;;;9.33;8.53;;;;;;;19.86;50.88;101650.63;4992192;28;20436;-49
2022/05/10 07:27:09;;;;;;;8.60;7.90;;;;;;;19.89;50.33;101649.34;4991626;28;20465;-49
2022/05/10 07:29:37;;;;;;;10.40;9.47;;;;;;;19.87;50.33;101646.03;4991965;28;20440;-45
2022/05/10 07:32:08;;;;;;;9.50;8.60;;;;;;;19.82;50.38;101640.50;4991557;28;20476;-46
2022/05/10 07:34:37;;;;;;;10.40;9.27;;;;;;;19.80;50.72;101637.22;4992172;28;20429;-48
2022/05/10 07:37:04;;;;;;;11.53;7.77;;;;;;;19.87;51.09;101643.31;4991548;28;20468;-49
2022/05/10 07:39:32;;;;;;;8.70;7.80;;;;;;;19.99;50.98;101637.91;4991998;28;20823;-49
2022/05/10 07:42:03;;;;;;;11.70;8.90;;;;;;;20.16;51.18;101639.63;4991546;28;20465;-46
2022/05/10 07:44:31;;;;;;;9.50;8.60;;;;;;;20.50;50.80;101647.97;4992164;28;20441;-49
2022/05/10 07:46:59;;;;;;;14.13;9.77;;;;;;;20.78;49.93;101645.28;4991323;28;20465;-45
2022/05/10 07:49:27;;;;;;;10.90;9.90;;;;;;;20.97;49.46;101630.44;4991722;28;20464;-47
2022/05/10 07:51:56;;;;;;;12.60;9.63;;;;;;;21.13;48.91;101631.56;4991977;28;20457;-45
2022/05/10 07:54:24;;;;;;;13.80;9.03;;;;;;;21.44;48.56;101623.69;4995295;28;20430;-49
2022/05/10 07:56:52;;;;;;;13.80;10.30;;;;;;;21.65;47.93;101616.72;4994900;28;20477;-46
2022/05/10 07:59:19;;;;;;;10.63;9.77;;;;;;;21.88;46.74;101611.09;4995321;28;20536;-48
2022/05/10 08:01:47;;;;;;;11.23;9.50;;;;;;;22.07;47.25;101614.38;4995086;28;20453;-45
2022/05/10 08:04:15;;;;;;;15.03;11.40;;;;;;;22.19;46.87;101609.59;4995343;28;20429;-46
2022/05/10 08:06:42;;;;;;;14.60;11.30;;;;;;;22.51;45.90;101610.56;4994737;28;20465;-46
2022/05/10 08:09:11;;;;;;;12.60;11.30;;;;;;;22.80;44.42;101610.34;4995003;28;20437;-47
2022/05/10 08:11:39;;;;;;;11.23;10.00;;;;;;;23.06;45.17;101609.50;4994986;28;20453;-46
2022/05/10 08:14:07;;;;;;;10.97;9.83;;;;;;;23.47;43.64;101613.44;4994977;28;20953;-47
2022/05/10 08:16:34;;;;;;;11.73;10.30;;;;;;;23.92;42.94;101591.94;4994479;28;20552;-49
2022/05/10 08:19:02;;;;;;;11.20;9.93;;;;;;;24.38;41.00;101598.44;4994960;28;20440;-46
2022/05/10 08:21:30;;;;;;;12.63;11.53;;;;;;;24.85;41.57;101592.06;4994589;28;20453;-46
2022/05/10 08:23:58;;;;;;;12.33;11.03;;;;;;;25.37;41.77;101584.41;4995105;28;20433;-51
2022/05/10 08:26:27;;;;;;;11.93;10.60;;;;;;;25.73;38.61;101586.03;4994554;28;21051;-45
2022/05/10 08:28:55;;;;;;;15.90;11.27;;;;;;;25.72;37.93;101575.34;4994933;28;20445;-46
2022/05/10 08:31:25;;;;;;;11.40;10.30;;;;;;;26.02;39.11;101577.16;4994294;28;20469;-46
2022/05/10 08:33:53;;;;;;;15.47;10.87;;;;;;;26.08;37.05;101567.84;4994677;28;20437;-44
2022/05/10 08:36:21;;;;;;;14.90;11.43;;;;;;;26.19;36.44;101570.31;4994303;28;20476;-45
2022/05/10 08:38:48;;;;;;;11.03;9.97;;;;;;;26.28;37.57;101563.16;4994788;28;20440;-47
2022/05/10 08:41:23;;;;;;;13.53;12.10;;;;;;;26.18;35.81;101560.47;4994435;28;20453;-45
2022/05/10 08:43:56;;;;;;;11.20;10.20;;;;;;;26.24;37.34;101551.16;4994712;28;20802;-46
2022/05/10 08:46:29;;;;;;;17.70;12.13;;;;;;;26.13;36.88;101549.53;4994159;28;20828;-44
2022/05/10 08:49:01;;;;;;;13.33;11.50;;;;;;;26.05;37.21;101557.47;4994651;28;20441;-48
2022/05/10 08:51:29;;;;;;;14.70;11.73;;;;;;;26.21;35.93;101545.44;4994290;28;20461;-48
2022/05/10 08:53:56;;;;;;;13.17;10.17;;;;;;;26.35;36.56;101551.91;4994433;28;20430;-44
2022/05/10 08:56:29;;;;;;;12.47;9.73;;;;;;;26.37;36.63;101549.72;4993813;28;21036;-45
2022/05/10 08:59:07;;;;;;;12.13;10.20;;;;;;;26.38;36.00;101559.53;4994212;28;20788;-46
2022/05/10 09:01:48;;;;;;;12.00;8.70;;;;;;;26.48;36.25;101554.03;4994121;28;20489;-49
2022/05/10 09:04:29;;;;;;;10.27;9.17;;;;;;;26.30;36.11;101546.47;4994032;28;20444;-44
2022/05/10 09:07:08;;;;;;;10.53;9.50;;;;;;;26.51;36.25;101537.06;4993808;28;20465;-44
2022/05/10 09:09:47;;;;;;;10.80;8.70;;;;;;;26.75;35.42;101532.50;4994000;28;20425;-45
2022/05/10 09:12:20;;;;;;;10.40;9.37;;;;;;;26.96;33.97;101529.63;4993866;28;20473;-44
2022/05/10 09:14:55;;;;;;;12.03;8.97;;;;;;;27.03;33.73;101541.09;4993861;28;20425;-48
2022/05/10 09:17:25;;;;;;;9.27;8.03;;;;;;;26.88;32.99;101536.56;4993459;28;20465;-46
2022/05/10 09:19:53;;;;;;;10.17;9.13;;;;;;;26.87;34.82;101533.00;4994266;28;20432;-43
2022/05/10 09:23:06;;;;;;;11.40;8.40;;;;;;;26.94;33.16;101529.94;4994100;28;20456;-43
2022/05/10 09:25:35;;;;;;;8.77;7.90;;;;;;;26.77;33.63;101529.47;4993793;28;20453;-46
2022/05/10 09:28:11;;;;;;;8.07;7.47;;;;;;;26.64;34.38;101530.13;4993252;28;20457;-48
2022/05/10 09:30:40;;;;;;;9.67;8.67;;;;;;;26.64;33.89;101521.94;4993189;28;20464;-44
2022/05/10 09:36:10;;;;;;;10.73;8.80;;;;;;;26.53;33.62;101517.59;4993075;28;20973;-44
2022/05/10 09:38:46;;;;;;;9.50;7.13;;;;;;;26.79;34.61;101522.63;4993477;28;20791;-45
2022/05/10 09:41:27;;;;;;;10.13;8.33;;;;;;;26.90;33.06;101515.19;4993312;28;20457;-44
2022/05/10 09:43:55;;;;;;;10.10;8.97;;;;;;;27.00;33.19;101511.53;4993415;28;20425;-44
2022/05/10 09:46:29;;;;;;;10.37;9.37;;;;;;;26.70;33.59;101502.44;4992986;28;20449;-44
2022/05/10 09:48:57;;;;;;;17.03;8.50;;;;;;;26.84;34.34;101508.13;4993358;28;20507;-44
2022/05/10 09:51:33;;;;;;;8.60;7.80;;;;;;;27.12;33.55;101511.97;4993479;28;20461;-47
2022/05/10 09:54:03;;;;;;;11.50;9.60;;;;;;;26.80;33.21;101512.50;4993442;28;20431;-47
2022/05/10 09:56:37;;;;;;;8.97;8.07;;;;;;;26.83;33.20;101504.56;4992846;28;20842;-45
2022/05/10 09:59:29;;;;;;;9.87;8.90;;;;;;;26.80;33.37;101498.81;4993018;28;21135;-46
2022/05/10 10:02:00;;;;;;;10.10;7.63;;;;;;;26.76;33.50;101503.22;4992912;28;20480;-50
2022/05/10 10:04:31;;;;;;;9.10;8.27;;;;;;;26.67;33.83;101505.72;4993194;28;20429;-45
2022/05/10 10:07:10;;;;;;;10.70;9.70;;;;;;;26.43;34.41;101509.47;4992719;28;20461;-45
2022/05/10 10:09:39;;;;;;;9.53;8.73;;;;;;;26.35;35.06;101497.22;4993024;28;20430;-46
2022/05/10 10:12:15;;;;;;;8.37;7.57;;;;;;;26.12;35.12;101497.88;4992468;28;20816;-48
2022/05/10 10:14:45;;;;;;;11.60;9.20;;;;;;;25.94;35.22;101485.66;4992427;28;20430;-44
2022/05/10 10:17:27;;;;;;;8.60;7.53;;;;;;;26.19;35.89;101496.50;4992451;28;20499;-50
2022/05/10 10:20:02;;;;;;;9.67;8.70;;;;;;;26.55;36.06;101488.88;4992797;28;20452;-46
2022/05/10 10:22:39;;;;;;;8.07;7.23;;;;;;;26.77;34.86;101481.03;4992418;28;20476;-47
2022/05/10 10:25:14;;;;;;;8.20;7.60;;;;;;;26.86;34.40;101484.00;4992816;28;20457;-47
2022/05/10 10:27:46;;;;;;;7.60;6.40;;;;;;;26.83;34.25;101474.44;4992304;28;20453;-46
2022/05/10 10:30:23;;;;;;;5.93;5.43;;;;;;;27.02;33.84;101468.25;4992362;28;20433;-45
2022/05/10 10:32:58;;;;;;;5.60;5.30;;;;;;;27.17;32.93;101470.84;4992579;28;20441;-44
2022/05/10 10:35:38;;;;;;;5.97;5.57;;;;;;;27.07;32.49;101465.47;4992812;28;20520;-47
2022/05/10 10:38:16;;;;;;;8.77;4.67;;;;;;;27.27;32.49;101465.28;4992046;28;20483;-46
2022/05/10 10:40:47;;;;;;;4.90;4.60;;;;;;;27.35;32.59;101456.41;4992315;28;20476;-48
2022/05/10 10:43:23;;;;;;;5.60;5.10;;;;;;;27.12;32.85;101452.53;4992362;28;20429;-44
2022/05/10 10:45:55;;;;;;;6.27;5.67;;;;;;;27.00;32.84;101451.31;4987731;28;20525;-46
2022/05/10 10:48:29;;;;;;;5.20;4.63;;;;;;;26.89;34.03;101453.31;4984801;28;20437;-46
2022/05/10 10:50:58;;;;;;;6.07;5.10;;;;;;;26.77;33.47;101452.84;4992280;28;20453;-48
2022/05/10 10:53:28;;;;;;;6.90;5.30;;;;;;;26.76;33.57;101448.50;4992407;28;20441;-47
2022/05/10 10:56:08;;;;;;;7.70;5.27;;;;;;;26.54;33.58;101453.59;4992318;28;20433;-46
2022/05/10 10:58:51;;;;;;;7.60;5.10;;;;;;;26.07;33.95;101465.09;4992460;28;20481;-48
2022/05/10 11:01:40;;;;;;;4.80;4.40;;;;;;;25.67;34.41;101466.94;4992070;28;20464;-45
2022/05/10 11:04:26;;;;;;;9.37;4.77;;;;;;;25.10;34.65;101474.69;4992165;28;20461;-45
2022/05/10 11:06:55;;;;;;;4.33;4.13;;;;;;;24.96;36.00;101455.34;4992005;28;20461;-46
2022/05/10 11:09:48;;;;;;;4.53;4.23;;;;;;;24.92;39.92;101450.69;4992447;28;20465;-48
2022/05/10 11:12:37;;;;;;;5.30;4.80;;;;;;;24.74;39.70;101441.97;4991880;28;20818;-47
2022/05/10 11:15:21;;;;;;;5.07;4.57;;;;;;;24.59;39.09;101427.50;4992181;28;20939;-49
2022/05/10 11:18:07;;;;;;;4.73;4.43;;;;;;;24.80;38.42;101423.69;4991601;28;20492;-50
2022/05/10 11:20:51;;;;;;;5.40;4.87;;;;;;;25.09;38.56;101422.00;4991905;28;20543;-47
2022/05/10 11:23:31;;;;;;;4.90;4.50;;;;;;;24.97;39.13;101410.56;4992035;28;20915;-47
2022/05/10 11:26:16;;;;;;;4.80;4.47;;;;;;;24.99;38.59;101411.16;4992416;28;20432;-49
2022/05/10 11:29:17;;;;;;;5.40;5.00;;;;;;;24.92;38.61;101399.69;4995975;28;20429;-47
2022/05/10 11:31:54;;;;;;;4.60;4.23;;;;;;;25.05;38.69;101401.84;4995559;28;20477;-46
2022/05/10 11:34:53;;;;;;;6.53;5.20;;;;;;;25.15;38.04;101385.44;4995721;28;20944;-46
2022/05/10 11:37:27;;;;;;;5.53;4.63;;;;;;;25.16;38.18;101381.63;4994712;28;20850;-47
2022/05/10 11:40:19;;;;;;;6.10;5.60;;;;;;;25.05;37.68;101374.56;4996029;28;20771;-48
2022/05/10 11:43:03;;;;;;;5.00;4.60;;;;;;;24.86;37.26;101378.97;4995745;28;20437;-45
2022/05/10 11:46:01;;;;;;;5.53;5.10;;;;;;;24.57;37.14;101384.16;4995519;28;20433;-46
2022/05/10 11:49:07;;;;;;;4.70;4.23;;;;;;;24.46;37.82;101385.22;4988452;28;20433;-47
2022/05/10 11:51:57;;;;;;;4.87;4.40;;;;;;;24.46;37.09;101384.44;4995226;28;20456;-51
2022/05/10 11:54:42;;;;;;;5.77;5.37;;;;;;;24.52;36.98;101383.34;4995419;28;20769;-51